createdAt,value
2022-09-28T00:00:22.299Z,81.17
2022-09-28T00:03:25.566Z,80.33
2022-09-28T00:06:30.764Z,79.81
2022-09-28T00:09:33.707Z,79.50
2022-09-28T00:12:36.199Z,80.03
2022-09-28T00:15:39.101Z,78.30
2022-09-28T00:18:41.876Z,77.37
2022-09-28T00:21:44.700Z,76.96
2022-09-28T00:24:47.484Z,78.67
2022-09-28T00:27:51.176Z,77.49
2022-09-28T00:30:57.006Z,77.15
2022-09-28T00:34:02.844Z,78.15
2022-09-28T00:37:06.877Z,78.72
2022-09-28T00:40:10.156Z,78.63
2022-09-28T00:43:23.012Z,78.22
2022-09-28T00:46:34.919Z,79.81
2022-09-28T00:49:53.644Z,81.27
2022-09-28T00:53:06.602Z,79.46
2022-09-28T00:56:19.090Z,79.19
2022-09-28T00:59:24.801Z,79.32
2022-09-28T01:02:28.075Z,79.51
2022-09-28T01:05:31.707Z,79.49
2022-09-28T01:08:35.224Z,78.92
2022-09-28T01:11:39.358Z,77.42
2022-09-28T01:14:43.601Z,76.35
2022-09-28T01:18:41.945Z,77.05
2022-09-28T01:21:56.276Z,76.29
2022-09-28T01:25:12.910Z,76.51
2022-09-28T01:28:18.648Z,75.78
2022-09-28T01:31:30.368Z,74.83
2022-09-28T01:34:41.508Z,76.19
2022-09-28T01:38:17.424Z,75.48
2022-09-28T01:41:24.135Z,75.78
2022-09-28T01:44:31.185Z,77.37
2022-09-28T01:47:38.392Z,78.00
2022-09-28T01:50:43.818Z,74.63
2022-09-28T01:53:51.558Z,74.86
2022-09-28T01:57:10.747Z,74.95
2022-09-28T02:00:16.219Z,76.25
2022-09-28T02:03:35.105Z,74.82
2022-09-28T02:06:45.978Z,76.26
2022-09-28T02:09:56.080Z,77.29
2022-09-28T02:13:04.777Z,75.09
2022-09-28T02:16:21.571Z,77.39
2022-09-28T02:19:27.734Z,75.90
2022-09-28T02:22:40.408Z,75.69
2022-09-28T02:26:00.974Z,75.03
2022-09-28T02:29:04.327Z,78.45
2022-09-28T02:32:07.213Z,75.31
2022-09-28T02:35:12.869Z,74.04
2022-09-28T02:38:16.391Z,72.86
2022-09-28T02:41:26.908Z,72.88
2022-09-28T02:44:44.911Z,74.55
2022-09-28T02:48:04.342Z,73.96
2022-09-28T02:51:07.184Z,73.49
2022-09-28T02:54:32.187Z,73.05
2022-09-28T02:57:53.721Z,76.72
2022-09-28T03:01:05.245Z,72.59
2022-09-28T03:04:27.040Z,74.44
2022-09-28T03:07:35.548Z,73.72
2022-09-28T03:11:10.191Z,75.23
2022-09-28T03:14:14.636Z,79.33
2022-09-28T03:17:20.560Z,75.71
2022-09-28T03:20:23.872Z,75.37
2022-09-28T03:23:26.853Z,75.85
2022-09-28T03:26:29.405Z,79.32
2022-09-28T03:29:33.158Z,78.10
2022-09-28T03:32:36.217Z,76.53
2022-09-28T03:35:39.098Z,75.83
2022-09-28T03:38:41.645Z,77.76
2022-09-28T03:41:45.836Z,74.80
2022-09-28T03:44:48.843Z,75.04
2022-09-28T03:47:52.320Z,75.28
2022-09-28T03:50:58.776Z,74.24
2022-09-28T03:54:01.642Z,76.51
2022-09-28T03:57:05.171Z,74.29
2022-09-28T04:00:09.204Z,78.38
2022-09-28T04:03:16.183Z,76.03
2022-09-28T04:06:19.155Z,76.44
2022-09-28T04:09:21.839Z,76.86
2022-09-28T04:12:24.766Z,76.88
2022-09-28T04:15:27.539Z,76.69
2022-09-28T04:18:31.306Z,77.79
2022-09-28T04:21:37.373Z,77.40
2022-09-28T04:24:43.580Z,77.81
2022-09-28T04:28:04.696Z,80.34
2022-09-28T04:31:13.436Z,78.75
2022-09-28T04:34:20.454Z,78.17
2022-09-28T04:37:23.388Z,78.95
2022-09-28T04:40:26.413Z,80.22
2022-09-28T04:43:29.747Z,78.55
2022-09-28T04:46:35.537Z,79.88
2022-09-28T04:49:39.163Z,79.87
2022-09-28T04:52:41.820Z,79.57
2022-09-28T04:55:44.993Z,82.22
2022-09-28T04:58:52.486Z,80.65
2022-09-28T05:01:55.955Z,78.27
2022-09-28T05:04:59.540Z,79.40
2022-09-28T05:08:02.374Z,79.62
2022-09-28T05:11:07.522Z,78.80
2022-09-28T05:14:12.141Z,78.93
2022-09-28T05:17:16.489Z,77.16
2022-09-28T05:20:20.326Z,76.07
2022-09-28T05:23:22.804Z,77.57
2022-09-28T05:26:29.988Z,77.81
2022-09-28T05:29:32.859Z,77.70
2022-09-28T05:32:42.608Z,79.57
2022-09-28T05:35:49.814Z,79.18
2022-09-28T05:38:55.565Z,78.60
2022-09-28T05:41:58.370Z,76.93
2022-09-28T05:45:01.310Z,71.68
2022-09-28T05:48:04.624Z,67.30
2022-09-28T05:51:07.329Z,64.55
2022-09-28T05:54:10.576Z,65.10
2022-09-28T05:57:14.694Z,63.04
2022-09-28T06:00:21.138Z,62.00
2022-09-28T06:03:25.547Z,59.55
2022-09-28T06:06:29.470Z,59.44
2022-09-28T06:09:32.715Z,57.45
2022-09-28T06:12:35.540Z,55.84
2022-09-28T06:15:42.520Z,56.03
2022-09-28T06:18:46.298Z,56.34
2022-09-28T06:21:49.533Z,56.28
2022-09-28T06:24:54.582Z,56.66
2022-09-28T06:28:05.372Z,56.23
2022-09-28T06:31:08.661Z,54.83
2022-09-28T06:34:18.051Z,53.00
2022-09-28T06:37:20.926Z,52.12
2022-09-28T06:40:24.915Z,50.71
2022-09-28T06:43:32.169Z,52.24
2022-09-28T06:46:39.404Z,51.71
2022-09-28T06:49:46.141Z,50.88
2022-09-28T06:52:53.586Z,52.32
2022-09-28T06:55:58.654Z,50.73
2022-09-28T06:59:01.662Z,49.60
2022-09-28T07:02:05.062Z,49.12
2022-09-28T07:05:16.866Z,51.30
2022-09-28T07:08:27.777Z,49.92
2022-09-28T07:11:36.887Z,49.13
2022-09-28T07:14:47.789Z,49.62
2022-09-28T07:18:02.423Z,50.21
2022-09-28T07:21:13.083Z,48.88
2022-09-28T07:24:20.090Z,47.36
2022-09-28T07:27:28.930Z,46.93
2022-09-28T07:30:34.755Z,45.46
2022-09-28T07:33:38.172Z,45.74
2022-09-28T07:36:43.687Z,47.41
2022-09-28T07:40:05.424Z,47.20
2022-09-28T07:43:13.116Z,47.71
2022-09-28T07:46:16.851Z,45.82
2022-09-28T07:49:22.493Z,44.99
2022-09-28T07:52:26.427Z,45.07
2022-09-28T07:55:29.996Z,44.46
2022-09-28T07:58:35.461Z,44.60
2022-09-28T08:01:40.183Z,43.57
2022-09-28T08:04:43.859Z,43.50
2022-09-28T08:07:46.700Z,43.05
2022-09-28T08:10:52.510Z,44.05
2022-09-28T08:13:58.137Z,43.19
2022-09-28T08:17:02.120Z,43.05
2022-09-28T08:20:26.068Z,43.92
2022-09-28T08:23:30.119Z,42.38
2022-09-28T08:26:32.701Z,43.33
2022-09-28T08:29:36.779Z,45.25
2022-09-28T08:32:49.370Z,45.26
2022-09-28T08:35:58.613Z,43.38
2022-09-28T08:39:01.495Z,41.56
2022-09-28T08:42:11.031Z,43.00
2022-09-28T08:45:24.945Z,43.12
2022-09-28T08:48:57.090Z,43.47
2022-09-28T08:52:17.251Z,44.51
2022-09-28T08:55:31.201Z,44.42
2022-09-28T08:58:40.785Z,44.14
2022-09-28T09:02:00.590Z,42.76
2022-09-28T09:05:06.257Z,42.63
2022-09-28T09:08:50.607Z,43.01
2022-09-28T09:12:07.741Z,41.40
2022-09-28T09:15:30.175Z,42.25
2022-09-28T09:18:42.675Z,45.22
2022-09-28T09:22:11.588Z,42.33
2022-09-28T09:25:23.398Z,42.98
2022-09-28T09:28:36.225Z,43.65
2022-09-28T09:31:57.021Z,44.11
2022-09-28T09:35:25.907Z,42.16
2022-09-28T09:39:05.646Z,43.79
2022-09-28T09:42:38.595Z,44.95
2022-09-28T09:45:58.774Z,45.11
2022-09-28T09:49:14.827Z,43.04
2022-09-28T09:52:42.373Z,44.03
2022-09-28T09:55:54.834Z,43.89
2022-09-28T09:59:06.396Z,44.56
2022-09-28T10:02:26.161Z,45.63
2022-09-28T10:05:32.196Z,47.68
2022-09-28T10:08:40.709Z,45.43
2022-09-28T10:11:46.966Z,47.99
2022-09-28T10:14:50.637Z,49.56
2022-09-28T10:18:00.980Z,51.44
2022-09-28T10:21:15.445Z,53.68
2022-09-28T10:24:45.767Z,50.73
2022-09-28T10:27:52.495Z,49.76
2022-09-28T10:30:55.892Z,48.81
2022-09-28T10:33:58.564Z,45.86
2022-09-28T10:37:05.453Z,47.42
2022-09-28T10:40:30.791Z,49.58
2022-09-28T10:43:38.660Z,50.19
2022-09-28T10:46:41.955Z,51.28
2022-09-28T10:49:48.537Z,51.91
2022-09-28T10:52:51.441Z,52.06
2022-09-28T10:56:00.481Z,48.04
2022-09-28T10:59:35.946Z,50.50
2022-09-28T11:02:42.589Z,51.28
2022-09-28T11:06:05.238Z,49.62
2022-09-28T11:09:29.814Z,46.50
2022-09-28T11:12:44.132Z,44.33
2022-09-28T11:15:48.358Z,45.91
2022-09-28T11:18:56.871Z,47.63
2022-09-28T11:22:01.419Z,50.50
2022-09-28T11:25:17.153Z,47.53
2022-09-28T11:28:26.448Z,45.89
2022-09-28T11:31:31.427Z,45.83
2022-09-28T11:34:58.066Z,49.23
2022-09-28T11:38:27.958Z,48.76
2022-09-28T11:42:00.689Z,47.40
2022-09-28T11:45:12.766Z,48.42
2022-09-28T11:48:18.986Z,47.75
2022-09-28T11:51:28.190Z,50.45
2022-09-28T11:54:41.275Z,49.16
2022-09-28T11:57:48.918Z,50.02
2022-09-28T12:00:59.546Z,48.34
2022-09-28T12:04:16.336Z,49.38
2022-09-28T12:07:26.136Z,47.82
2022-09-28T12:10:39.404Z,50.98
2022-09-28T12:13:48.025Z,50.97
2022-09-28T12:17:19.857Z,51.31
2022-09-28T12:20:27.050Z,50.61
2022-09-28T12:23:35.863Z,51.83
2022-09-28T12:26:47.291Z,52.13
2022-09-28T12:30:06.125Z,53.04
2022-09-28T12:33:17.752Z,52.34
2022-09-28T12:36:47.526Z,53.07
2022-09-28T12:40:23.512Z,54.59
2022-09-28T12:43:46.533Z,55.13
2022-09-28T12:47:14.759Z,54.92
2022-09-28T12:50:39.062Z,52.55
2022-09-28T12:54:15.547Z,52.77
2022-09-28T12:57:52.451Z,52.90
2022-09-28T13:01:13.839Z,52.11
2022-09-28T13:04:58.049Z,51.15
2022-09-28T13:08:19.345Z,51.39
2022-09-28T13:11:34.927Z,51.61
2022-09-28T13:14:40.785Z,52.50
2022-09-28T13:17:55.556Z,52.61
2022-09-28T13:21:06.048Z,52.60
2022-09-28T13:24:31.681Z,51.64
2022-09-28T13:27:40.615Z,51.88
2022-09-28T13:30:45.268Z,50.52
2022-09-28T13:33:49.296Z,51.53
2022-09-28T13:37:20.138Z,51.76
2022-09-28T13:41:01.613Z,51.23
2022-09-28T13:44:13.553Z,51.07
2022-09-28T13:47:40.138Z,51.07
2022-09-28T13:51:03.671Z,49.74
2022-09-28T13:54:45.535Z,50.08
2022-09-28T13:58:16.232Z,50.19
2022-09-28T14:01:29.831Z,50.80
2022-09-28T14:04:54.509Z,51.02
2022-09-28T14:08:10.016Z,51.38
2022-09-28T14:11:27.077Z,50.86
2022-09-28T14:14:44.656Z,51.27
2022-09-28T14:17:57.792Z,51.42
2022-09-28T14:21:40.196Z,51.54
2022-09-28T14:25:13.684Z,52.18
2022-09-28T14:28:49.178Z,52.95
2022-09-28T14:31:51.947Z,53.84
2022-09-28T14:35:00.819Z,52.43
2022-09-28T14:38:32.264Z,52.74
2022-09-28T14:41:43.987Z,51.87
2022-09-28T14:45:06.102Z,51.58
2022-09-28T14:48:22.245Z,51.18
2022-09-28T14:51:26.218Z,51.70
2022-09-28T14:54:45.814Z,52.61
2022-09-28T14:57:55.185Z,52.35
2022-09-28T15:01:05.406Z,52.09
2022-09-28T15:04:12.520Z,52.89
2022-09-28T15:07:22.504Z,53.31
2022-09-28T15:10:31.855Z,53.15
2022-09-28T15:13:34.550Z,53.73
2022-09-28T15:16:37.475Z,54.21
2022-09-28T15:19:57.311Z,54.11
2022-09-28T15:23:00.443Z,54.27
2022-09-28T15:26:10.194Z,54.96
2022-09-28T15:29:19.482Z,55.06
2022-09-28T15:32:29.721Z,54.62
2022-09-28T15:35:32.626Z,54.86
2022-09-28T15:38:35.976Z,54.41
2022-09-28T15:41:38.939Z,55.39
2022-09-28T15:44:45.694Z,55.03
2022-09-28T15:47:50.572Z,55.61
2022-09-28T15:51:12.626Z,56.64
2022-09-28T15:54:23.919Z,56.54
2022-09-28T15:57:39.624Z,57.20
2022-09-28T16:00:42.924Z,57.47
2022-09-28T16:03:45.813Z,57.97
2022-09-28T16:07:19.224Z,58.40
2022-09-28T16:10:36.115Z,57.87
2022-09-28T16:14:17.128Z,58.40
2022-09-28T16:17:33.715Z,58.35
2022-09-28T16:20:39.213Z,58.78
2022-09-28T16:23:42.657Z,58.77
2022-09-28T16:26:45.333Z,58.62
2022-09-28T16:30:14.554Z,58.96
2022-09-28T16:33:49.059Z,59.01
2022-09-28T16:36:52.224Z,59.02
2022-09-28T16:39:55.639Z,58.87
2022-09-28T16:43:04.345Z,58.81
2022-09-28T16:46:10.498Z,58.63
2022-09-28T16:49:19.914Z,58.52
2022-09-28T16:52:42.756Z,58.57
2022-09-28T16:55:48.613Z,58.82
2022-09-28T16:58:51.175Z,59.21
2022-09-28T17:01:56.638Z,59.45
2022-09-28T17:05:07.226Z,59.86
2022-09-28T17:08:22.255Z,60.18
2022-09-28T17:11:25.400Z,60.51
2022-09-28T17:14:28.323Z,61.01
2022-09-28T17:17:31.447Z,61.11
2022-09-28T17:20:39.078Z,61.76
2022-09-28T17:23:44.931Z,61.62
2022-09-28T17:26:50.359Z,62.21
2022-09-28T17:29:52.987Z,63.15
2022-09-28T17:32:55.920Z,63.76
2022-09-28T17:36:04.822Z,63.85
2022-09-28T17:39:17.987Z,64.45
2022-09-28T17:42:22.609Z,62.96
2022-09-28T17:45:28.568Z,63.62
2022-09-28T17:48:34.270Z,64.00
2022-09-28T17:51:38.826Z,64.42
2022-09-28T17:54:42.978Z,65.15
2022-09-28T17:57:46.698Z,65.99
2022-09-28T18:00:51.863Z,67.15
2022-09-28T18:03:54.658Z,67.86
2022-09-28T18:06:57.479Z,68.31
2022-09-28T18:10:00.999Z,70.39
2022-09-28T18:13:03.578Z,72.19
2022-09-28T18:16:06.700Z,74.18
2022-09-28T18:19:10.391Z,74.26
2022-09-28T18:22:17.748Z,76.41
2022-09-28T18:25:21.907Z,77.87
2022-09-28T18:28:25.024Z,78.25
2022-09-28T18:31:28.491Z,80.78
2022-09-28T18:34:37.133Z,82.73
2022-09-28T18:37:43.202Z,82.90
2022-09-28T18:40:48.411Z,84.92
2022-09-28T18:44:00.498Z,86.39
2022-09-28T18:47:04.370Z,85.43
2022-09-28T18:50:08.158Z,87.24
2022-09-28T18:53:14.276Z,88.97
2022-09-28T18:56:18.934Z,89.62
2022-09-28T18:59:27.284Z,90.69
2022-09-28T19:02:30.176Z,91.30
2022-09-28T19:05:33.859Z,91.32
2022-09-28T19:08:38.466Z,93.10
2022-09-28T19:11:41.758Z,94.67
2022-09-28T19:14:44.394Z,94.87
2022-09-28T19:17:50.441Z,94.41
2022-09-28T19:20:53.086Z,96.78
2022-09-28T19:24:03.441Z,95.28
2022-09-28T19:27:08.773Z,97.00
2022-09-28T19:30:12.514Z,96.07
2022-09-28T19:33:17.482Z,98.29
2022-09-28T19:36:24.069Z,97.28
2022-09-28T19:39:26.767Z,97.55
2022-09-28T19:42:29.971Z,99.25
2022-09-28T19:45:36.763Z,100.00
2022-09-28T19:48:42.564Z,100.00
2022-09-28T19:52:11.421Z,100.00
2022-09-28T19:55:14.614Z,100.00
2022-09-28T19:58:24.095Z,100.00
2022-09-28T20:01:31.700Z,100.00
2022-09-28T20:04:35.090Z,100.00
2022-09-28T20:07:39.850Z,100.00
2022-09-28T20:10:52.417Z,100.00
2022-09-28T20:13:55.488Z,100.00
2022-09-28T20:16:58.387Z,100.00
2022-09-28T20:20:01.018Z,100.00
2022-09-28T20:23:04.645Z,100.00
2022-09-28T20:26:14.705Z,100.00
2022-09-28T20:29:17.840Z,100.00
2022-09-28T20:32:20.455Z,100.00
2022-09-28T20:35:32.758Z,100.00
2022-09-28T20:38:40.445Z,100.00
2022-09-28T20:41:43.445Z,100.00
2022-09-28T20:44:46.086Z,100.00
2022-09-28T20:47:48.961Z,100.00
2022-09-28T20:51:03.126Z,100.00
2022-09-28T20:54:07.527Z,100.00
2022-09-28T20:57:19.081Z,100.00
2022-09-28T21:00:23.004Z,100.00
2022-09-28T21:03:25.651Z,100.00
2022-09-28T21:06:34.177Z,100.00
2022-09-28T21:09:37.599Z,100.00
2022-09-28T21:12:40.719Z,100.00
2022-09-28T21:15:45.146Z,100.00
2022-09-28T21:18:48.590Z,100.00
2022-09-28T21:21:51.395Z,100.00
2022-09-28T21:24:54.439Z,100.00
2022-09-28T21:28:00.179Z,100.00
2022-09-28T21:31:06.419Z,100.00
2022-09-28T21:34:13.816Z,100.00
2022-09-28T21:37:16.740Z,100.00
2022-09-28T21:40:20.438Z,100.00
2022-09-28T21:43:24.686Z,100.00
2022-09-28T21:46:33.457Z,100.00
2022-09-28T21:49:39.342Z,100.00
2022-09-28T21:52:44.361Z,100.00
2022-09-28T21:55:52.587Z,100.00
2022-09-28T21:58:55.396Z,100.00
2022-09-28T22:01:58.371Z,100.00
2022-09-28T22:05:01.282Z,100.00
2022-09-28T22:08:03.860Z,100.00
2022-09-28T22:11:09.802Z,100.00
2022-09-28T22:14:12.450Z,100.00
2022-09-28T22:17:16.600Z,100.00
2022-09-28T22:20:19.343Z,100.00
2022-09-28T22:23:22.277Z,100.00
2022-09-28T22:26:26.231Z,100.00
2022-09-28T22:29:29.183Z,100.00
2022-09-28T22:32:33.088Z,100.00
2022-09-28T22:35:35.979Z,100.00
2022-09-28T22:38:39.228Z,100.00
2022-09-28T22:41:42.116Z,100.00
2022-09-28T22:44:44.752Z,100.00
2022-09-28T22:47:47.650Z,100.00
2022-09-28T22:50:51.565Z,100.00
2022-09-28T22:53:54.485Z,100.00
2022-09-28T22:56:57.155Z,100.00
2022-09-28T23:00:00.406Z,100.00
2022-09-28T23:03:04.796Z,100.00
2022-09-28T23:06:08.705Z,100.00
2022-09-28T23:09:11.460Z,100.00
2022-09-28T23:12:14.332Z,100.00
2022-09-28T23:15:17.858Z,100.00
2022-09-28T23:18:21.067Z,100.00
2022-09-28T23:21:27.133Z,100.00
2022-09-28T23:24:30.476Z,100.00
2022-09-28T23:27:33.161Z,100.00
2022-09-28T23:30:36.218Z,100.00
2022-09-28T23:33:38.797Z,100.00
2022-09-28T23:36:41.834Z,100.00
2022-09-28T23:39:44.656Z,100.00
2022-09-28T23:42:47.962Z,100.00
2022-09-28T23:45:50.521Z,100.00
2022-09-28T23:48:53.669Z,100.00
2022-09-28T23:51:56.264Z,100.00
2022-09-28T23:54:59.109Z,100.00
2022-09-28T23:58:01.748Z,100.00
